Shark River Manor, New Jersey
Current Conditions -  °F | °C
As of 12:35 AM on Thursday 27 Nov 2014 (Local Time) from KBLM Reporting Station
Broken Clouds Broken Clouds  
Wind Chill: -1°   Ceiling: 4900
Heat Index:   Visibility: 10mi
Dew Point: -2°   Wind: 7mph
Humidity: 75%   Direction: 310°NW
Pressure: 29.85"   Gusts: NA
Location:  40.1681°N, 74.0774°W
Report Text: KBLM 270535Z AUTO 31006KT 10SM FEW007 SCT015 BKN049 02/M02 A2985 RMK AO1
Loading
Personal Weather Stations






























Interactive Weather Map New forecast layout! Learn more

10-Day Weather Forecast

Advertisements
Track Severe Weather on mobile